sensor_id;sensor_type;location;lat;lon;timestamp;temperature;humidity
19555;DHT22;9924;50.828;6.440;2022-09-13T00:40:56;16.70;99.90
19555;DHT22;9924;50.828;6.440;2022-09-13T00:46:05;16.80;99.90
19555;DHT22;9924;50.828;6.440;2022-09-13T00:48:33;16.90;99.90
19555;DHT22;9924;50.828;6.440;2022-09-13T00:51:01;16.90;99.90
19555;DHT22;9924;50.828;6.440;2022-09-13T00:53:30;17.00;99.90
19555;DHT22;9924;50.828;6.440;2022-09-13T00:56:03;17.00;99.90
19555;DHT22;9924;50.828;6.440;2022-09-13T00:58:38;17.10;99.90
19555;DHT22;9924;50.828;6.440;2022-09-13T01:01:09;17.10;99.90
19555;DHT22;9924;50.828;6.440;2022-09-13T01:03:36;17.20;99.90
19555;DHT22;9924;50.828;6.440;2022-09-13T01:06:08;17.20;99.90
19555;DHT22;9924;50.828;6.440;2022-09-13T01:08:36;17.20;99.90
19555;DHT22;9924;50.828;6.440;2022-09-13T01:11:07;17.20;99.90
19555;DHT22;9924;50.828;6.440;2022-09-13T01:13:37;17.20;99.90
19555;DHT22;9924;50.828;6.440;2022-09-13T01:16:04;17.30;99.90
19555;DHT22;9924;50.828;6.440;2022-09-13T01:18:30;17.30;99.90
19555;DHT22;9924;50.828;6.440;2022-09-13T01:29:55;17.00;99.90
19555;DHT22;9924;50.828;6.440;2022-09-13T01:37:55;16.80;99.90
19555;DHT22;9924;50.828;6.440;2022-09-13T01:46:04;16.70;99.90
19555;DHT22;9924;50.828;6.440;2022-09-13T01:57:13;16.60;99.90
19555;DHT22;9924;50.828;6.440;2022-09-13T01:59:52;16.50;99.90
19555;DHT22;9924;50.828;6.440;2022-09-13T02:02:27;16.50;99.90
19555;DHT22;9924;50.828;6.440;2022-09-13T02:05:03;16.50;99.90
19555;DHT22;9924;50.828;6.440;2022-09-13T02:07:42;16.50;99.90
19555;DHT22;9924;50.828;6.440;2022-09-13T02:10:16;16.40;99.90
19555;DHT22;9924;50.828;6.440;2022-09-13T02:12:46;16.40;99.90
19555;DHT22;9924;50.828;6.440;2022-09-13T02:15:21;16.30;99.90
19555;DHT22;9924;50.828;6.440;2022-09-13T02:18:10;16.30;99.90
19555;DHT22;9924;50.828;6.440;2022-09-13T02:20:40;16.40;99.90
19555;DHT22;9924;50.828;6.440;2022-09-13T02:23:13;16.40;99.90
19555;DHT22;9924;50.828;6.440;2022-09-13T02:25:40;16.50;99.90
19555;DHT22;9924;50.828;6.440;2022-09-13T02:28:10;16.60;99.90
19555;DHT22;9924;50.828;6.440;2022-09-13T02:30:40;16.60;99.90
19555;DHT22;9924;50.828;6.440;2022-09-13T02:33:14;16.60;99.90
19555;DHT22;9924;50.828;6.440;2022-09-13T02:35:54;16.70;99.90
19555;DHT22;9924;50.828;6.440;2022-09-13T02:38:30;16.70;99.90
19555;DHT22;9924;50.828;6.440;2022-09-13T02:41:00;16.70;99.90
19555;DHT22;9924;50.828;6.440;2022-09-13T02:43:34;16.80;99.90
19555;DHT22;9924;50.828;6.440;2022-09-13T02:51:37;17.00;99.90
19555;DHT22;9924;50.828;6.440;2022-09-13T02:57:05;17.10;99.90
19555;DHT22;9924;50.828;6.440;2022-09-13T02:59:32;17.10;99.90
19555;DHT22;9924;50.828;6.440;2022-09-13T03:02:11;17.10;99.90
19555;DHT22;9924;50.828;6.440;2022-09-13T03:04:38;17.10;99.90
19555;DHT22;9924;50.828;6.440;2022-09-13T03:07:12;17.00;99.90
19555;DHT22;9924;50.828;6.440;2022-09-13T03:09:54;17.10;99.90
19555;DHT22;9924;50.828;6.440;2022-09-13T03:12:48;17.10;99.90
19555;DHT22;9924;50.828;6.440;2022-09-13T03:20:23;17.20;99.90
19555;DHT22;9924;50.828;6.440;2022-09-13T03:28:40;17.40;99.90
19555;DHT22;9924;50.828;6.440;2022-09-13T03:34:12;17.50;99.90
19555;DHT22;9924;50.828;6.440;2022-09-13T03:36:56;17.50;99.90
19555;DHT22;9924;50.828;6.440;2022-09-13T03:39:51;17.60;99.90
19555;DHT22;9924;50.828;6.440;2022-09-13T03:42:21;17.60;99.90
19555;DHT22;9924;50.828;6.440;2022-09-13T03:44:50;17.60;99.90
19555;DHT22;9924;50.828;6.440;2022-09-13T03:47:18;17.60;99.90
19555;DHT22;9924;50.828;6.440;2022-09-13T03:49:46;17.50;99.90
19555;DHT22;9924;50.828;6.440;2022-09-13T03:52:12;17.60;99.90
19555;DHT22;9924;50.828;6.440;2022-09-13T03:54:38;17.60;99.90
19555;DHT22;9924;50.828;6.440;2022-09-13T03:57:16;17.50;99.90
19555;DHT22;9924;50.828;6.440;2022-09-13T03:59:47;17.60;99.90
19555;DHT22;9924;50.828;6.440;2022-09-13T04:02:14;17.60;99.90
19555;DHT22;9924;50.828;6.440;2022-09-13T04:04:41;17.60;99.90
19555;DHT22;9924;50.828;6.440;2022-09-13T04:07:08;17.50;99.90
19555;DHT22;9924;50.828;6.440;2022-09-13T04:09:35;17.60;99.90
19555;DHT22;9924;50.828;6.440;2022-09-13T04:12:01;17.70;99.90
19555;DHT22;9924;50.828;6.440;2022-09-13T04:14:26;17.60;99.90
19555;DHT22;9924;50.828;6.440;2022-09-13T04:16:53;17.70;99.90
19555;DHT22;9924;50.828;6.440;2022-09-13T04:19:20;17.70;99.90
19555;DHT22;9924;50.828;6.440;2022-09-13T04:21:52;17.70;99.90
19555;DHT22;9924;50.828;6.440;2022-09-13T04:24:18;17.60;99.90
19555;DHT22;9924;50.828;6.440;2022-09-13T04:26:48;17.60;99.90
19555;DHT22;9924;50.828;6.440;2022-09-13T04:29:15;17.60;99.90
19555;DHT22;9924;50.828;6.440;2022-09-13T04:31:43;17.50;99.90
19555;DHT22;9924;50.828;6.440;2022-09-13T04:34:09;17.60;99.90
19555;DHT22;9924;50.828;6.440;2022-09-13T04:36:35;17.60;99.90
19555;DHT22;9924;50.828;6.440;2022-09-13T04:39:00;17.60;99.90
19555;DHT22;9924;50.828;6.440;2022-09-13T04:41:27;17.50;99.90
19555;DHT22;9924;50.828;6.440;2022-09-13T04:43:53;17.50;99.90
19555;DHT22;9924;50.828;6.440;2022-09-13T04:46:19;17.40;99.90
19555;DHT22;9924;50.828;6.440;2022-09-13T04:48:51;17.40;99.90
19555;DHT22;9924;50.828;6.440;2022-09-13T04:51:17;17.50;99.90
19555;DHT22;9924;50.828;6.440;2022-09-13T04:53:45;17.40;99.90
19555;DHT22;9924;50.828;6.440;2022-09-13T04:56:11;17.40;99.90
19555;DHT22;9924;50.828;6.440;2022-09-13T04:58:39;17.40;99.90
19555;DHT22;9924;50.828;6.440;2022-09-13T05:01:07;17.40;99.90
19555;DHT22;9924;50.828;6.440;2022-09-13T05:03:34;17.40;99.90
19555;DHT22;9924;50.828;6.440;2022-09-13T05:06:08;17.50;99.90
19555;DHT22;9924;50.828;6.440;2022-09-13T05:08:35;17.50;99.90
19555;DHT22;9924;50.828;6.440;2022-09-13T05:11:02;17.50;99.90
19555;DHT22;9924;50.828;6.440;2022-09-13T05:13:28;17.40;99.90
19555;DHT22;9924;50.828;6.440;2022-09-13T05:15:58;17.40;99.90
19555;DHT22;9924;50.828;6.440;2022-09-13T05:18:32;17.50;99.90
19555;DHT22;9924;50.828;6.440;2022-09-13T05:20:59;17.50;99.90
19555;DHT22;9924;50.828;6.440;2022-09-13T05:23:26;17.50;99.90
19555;DHT22;9924;50.828;6.440;2022-09-13T05:25:59;17.60;99.90
19555;DHT22;9924;50.828;6.440;2022-09-13T05:28:27;17.60;99.90
19555;DHT22;9924;50.828;6.440;2022-09-13T05:30:58;17.70;99.90
19555;DHT22;9924;50.828;6.440;2022-09-13T05:33:29;17.70;99.90
19555;DHT22;9924;50.828;6.440;2022-09-13T05:35:55;17.70;99.90
19555;DHT22;9924;50.828;6.440;2022-09-13T05:38:21;17.70;99.90
19555;DHT22;9924;50.828;6.440;2022-09-13T05:40:47;17.80;99.90
19555;DHT22;9924;50.828;6.440;2022-09-13T05:43:13;17.80;99.90
19555;DHT22;9924;50.828;6.440;2022-09-13T05:45:40;17.80;99.90
19555;DHT22;9924;50.828;6.440;2022-09-13T05:48:06;17.80;99.90
19555;DHT22;9924;50.828;6.440;2022-09-13T05:50:35;17.80;99.90
19555;DHT22;9924;50.828;6.440;2022-09-13T05:53:01;17.90;99.90
19555;DHT22;9924;50.828;6.440;2022-09-13T05:55:27;18.00;99.90
19555;DHT22;9924;50.828;6.440;2022-09-13T05:57:52;18.00;99.90
19555;DHT22;9924;50.828;6.440;2022-09-13T06:00:18;18.10;99.90
19555;DHT22;9924;50.828;6.440;2022-09-13T06:02:44;18.10;99.90
19555;DHT22;9924;50.828;6.440;2022-09-13T06:05:10;18.10;99.90
19555;DHT22;9924;50.828;6.440;2022-09-13T06:07:39;18.10;99.90
19555;DHT22;9924;50.828;6.440;2022-09-13T06:10:06;18.20;99.90
19555;DHT22;9924;50.828;6.440;2022-09-13T06:12:32;18.30;99.90
19555;DHT22;9924;50.828;6.440;2022-09-13T06:14:58;18.30;99.90
19555;DHT22;9924;50.828;6.440;2022-09-13T06:17:24;18.40;99.90
19555;DHT22;9924;50.828;6.440;2022-09-13T06:19:50;18.40;99.90
19555;DHT22;9924;50.828;6.440;2022-09-13T06:22:16;18.50;99.90
19555;DHT22;9924;50.828;6.440;2022-09-13T06:24:41;18.60;99.90
19555;DHT22;9924;50.828;6.440;2022-09-13T06:27:07;18.70;99.90
19555;DHT22;9924;50.828;6.440;2022-09-13T06:29:35;18.70;99.90
19555;DHT22;9924;50.828;6.440;2022-09-13T06:32:02;18.80;99.90
19555;DHT22;9924;50.828;6.440;2022-09-13T06:34:27;18.80;99.90
19555;DHT22;9924;50.828;6.440;2022-09-13T06:36:53;18.90;99.90
19555;DHT22;9924;50.828;6.440;2022-09-13T06:39:19;19.10;99.90
19555;DHT22;9924;50.828;6.440;2022-09-13T06:41:44;19.20;99.90
19555;DHT22;9924;50.828;6.440;2022-09-13T06:44:10;19.30;99.90
19555;DHT22;9924;50.828;6.440;2022-09-13T06:46:37;19.30;99.90
19555;DHT22;9924;50.828;6.440;2022-09-13T06:49:04;19.40;99.90
19555;DHT22;9924;50.828;6.440;2022-09-13T06:51:31;19.50;99.90
19555;DHT22;9924;50.828;6.440;2022-09-13T06:53:58;19.70;99.90
19555;DHT22;9924;50.828;6.440;2022-09-13T06:56:31;19.70;99.90
19555;DHT22;9924;50.828;6.440;2022-09-13T06:59:00;19.80;99.90
19555;DHT22;9924;50.828;6.440;2022-09-13T07:01:30;19.80;99.90
19555;DHT22;9924;50.828;6.440;2022-09-13T07:04:07;20.00;99.90
19555;DHT22;9924;50.828;6.440;2022-09-13T07:06:44;20.10;99.90
19555;DHT22;9924;50.828;6.440;2022-09-13T07:09:16;20.10;99.90
19555;DHT22;9924;50.828;6.440;2022-09-13T07:11:43;20.30;99.90
19555;DHT22;9924;50.828;6.440;2022-09-13T07:14:18;20.30;99.90
19555;DHT22;9924;50.828;6.440;2022-09-13T07:16:44;20.50;99.90
19555;DHT22;9924;50.828;6.440;2022-09-13T07:19:14;20.60;99.90
19555;DHT22;9924;50.828;6.440;2022-09-13T07:21:41;20.70;99.90
19555;DHT22;9924;50.828;6.440;2022-09-13T07:24:08;20.80;99.90
19555;DHT22;9924;50.828;6.440;2022-09-13T07:26:34;20.90;99.90
19555;DHT22;9924;50.828;6.440;2022-09-13T07:29:03;20.90;99.90
19555;DHT22;9924;50.828;6.440;2022-09-13T07:31:34;21.00;99.90
19555;DHT22;9924;50.828;6.440;2022-09-13T07:34:04;21.00;99.90
19555;DHT22;9924;50.828;6.440;2022-09-13T07:36:32;21.10;99.90
19555;DHT22;9924;50.828;6.440;2022-09-13T07:38:58;21.20;99.90
19555;DHT22;9924;50.828;6.440;2022-09-13T07:41:26;21.40;99.90
19555;DHT22;9924;50.828;6.440;2022-09-13T07:43:53;21.50;99.90
19555;DHT22;9924;50.828;6.440;2022-09-13T07:46:21;21.70;99.90
19555;DHT22;9924;50.828;6.440;2022-09-13T07:48:48;21.80;99.90
19555;DHT22;9924;50.828;6.440;2022-09-13T07:51:18;21.90;99.90
19555;DHT22;9924;50.828;6.440;2022-09-13T07:53:48;22.10;99.90
19555;DHT22;9924;50.828;6.440;2022-09-13T07:56:19;22.40;99.90
19555;DHT22;9924;50.828;6.440;2022-09-13T07:58:47;22.60;99.90
19555;DHT22;9924;50.828;6.440;2022-09-13T08:01:24;22.90;99.90
19555;DHT22;9924;50.828;6.440;2022-09-13T08:03:58;23.10;99.90
19555;DHT22;9924;50.828;6.440;2022-09-13T08:06:28;23.20;99.90
19555;DHT22;9924;50.828;6.440;2022-09-13T08:08:55;23.30;99.90
19555;DHT22;9924;50.828;6.440;2022-09-13T08:11:30;23.40;99.90
19555;DHT22;9924;50.828;6.440;2022-09-13T08:13:57;23.40;99.90
19555;DHT22;9924;50.828;6.440;2022-09-13T08:16:24;23.50;99.90
19555;DHT22;9924;50.828;6.440;2022-09-13T08:18:55;23.70;99.90
19555;DHT22;9924;50.828;6.440;2022-09-13T08:21:22;23.80;99.90
19555;DHT22;9924;50.828;6.440;2022-09-13T08:23:49;23.80;99.90
19555;DHT22;9924;50.828;6.440;2022-09-13T08:26:15;23.90;99.90
19555;DHT22;9924;50.828;6.440;2022-09-13T08:28:42;24.00;99.90
19555;DHT22;9924;50.828;6.440;2022-09-13T08:31:13;24.20;99.90
19555;DHT22;9924;50.828;6.440;2022-09-13T08:33:42;24.40;99.90
19555;DHT22;9924;50.828;6.440;2022-09-13T08:36:09;24.60;99.90
19555;DHT22;9924;50.828;6.440;2022-09-13T08:38:35;24.50;99.90
19555;DHT22;9924;50.828;6.440;2022-09-13T08:44:19;24.30;99.90
19555;DHT22;9924;50.828;6.440;2022-09-13T08:47:09;24.50;99.90
19555;DHT22;9924;50.828;6.440;2022-09-13T08:49:43;24.50;99.90
19555;DHT22;9924;50.828;6.440;2022-09-13T08:52:45;24.50;99.90
19555;DHT22;9924;50.828;6.440;2022-09-13T09:00:32;24.80;99.90
19555;DHT22;9924;50.828;6.440;2022-09-13T09:03:26;25.10;99.90
19555;DHT22;9924;50.828;6.440;2022-09-13T09:05:55;25.40;99.90
19555;DHT22;9924;50.828;6.440;2022-09-13T09:08:55;25.60;99.90
19555;DHT22;9924;50.828;6.440;2022-09-13T09:11:32;25.90;99.90
19555;DHT22;9924;50.828;6.440;2022-09-13T09:16:56;26.00;99.90
19555;DHT22;9924;50.828;6.440;2022-09-13T09:19:33;26.00;99.90
19555;DHT22;9924;50.828;6.440;2022-09-13T09:22:12;26.00;99.90
19555;DHT22;9924;50.828;6.440;2022-09-13T09:24:44;26.30;99.90
19555;DHT22;9924;50.828;6.440;2022-09-13T09:27:16;26.40;99.90
19555;DHT22;9924;50.828;6.440;2022-09-13T09:29:43;26.40;99.90
19555;DHT22;9924;50.828;6.440;2022-09-13T09:34:50;26.90;99.90
19555;DHT22;9924;50.828;6.440;2022-09-13T09:37:25;26.90;99.90
19555;DHT22;9924;50.828;6.440;2022-09-13T09:39:56;27.10;99.90
19555;DHT22;9924;50.828;6.440;2022-09-13T09:42:25;27.10;99.90
19555;DHT22;9924;50.828;6.440;2022-09-13T09:44:56;27.10;99.90
19555;DHT22;9924;50.828;6.440;2022-09-13T09:47:40;27.20;99.90
19555;DHT22;9924;50.828;6.440;2022-09-13T09:50:12;27.20;99.90
19555;DHT22;9924;50.828;6.440;2022-09-13T09:55:29;27.20;99.90
19555;DHT22;9924;50.828;6.440;2022-09-13T09:58:00;27.40;99.90
19555;DHT22;9924;50.828;6.440;2022-09-13T10:00:34;27.80;99.90
19555;DHT22;9924;50.828;6.440;2022-09-13T10:03:06;28.00;99.90
19555;DHT22;9924;50.828;6.440;2022-09-13T10:05:34;28.00;99.90
19555;DHT22;9924;50.828;6.440;2022-09-13T10:08:04;27.80;99.90
19555;DHT22;9924;50.828;6.440;2022-09-13T10:10:52;27.60;99.90
19555;DHT22;9924;50.828;6.440;2022-09-13T10:13:20;27.30;99.90
19555;DHT22;9924;50.828;6.440;2022-09-13T10:18:21;27.40;99.90
19555;DHT22;9924;50.828;6.440;2022-09-13T10:21:06;27.40;99.90
19555;DHT22;9924;50.828;6.440;2022-09-13T10:23:34;27.50;99.90
19555;DHT22;9924;50.828;6.440;2022-09-13T10:26:10;27.50;99.90
19555;DHT22;9924;50.828;6.440;2022-09-13T10:28:50;27.30;99.90
19555;DHT22;9924;50.828;6.440;2022-09-13T10:31:30;27.00;99.90
19555;DHT22;9924;50.828;6.440;2022-09-13T10:34:10;26.90;99.90
19555;DHT22;9924;50.828;6.440;2022-09-13T10:36:50;26.80;99.90
19555;DHT22;9924;50.828;6.440;2022-09-13T10:39:18;26.90;99.90
19555;DHT22;9924;50.828;6.440;2022-09-13T10:44:30;27.20;99.90
19555;DHT22;9924;50.828;6.440;2022-09-13T10:47:01;27.30;99.90
19555;DHT22;9924;50.828;6.440;2022-09-13T10:49:49;27.40;99.90
19555;DHT22;9924;50.828;6.440;2022-09-13T10:52:34;27.60;99.90
19555;DHT22;9924;50.828;6.440;2022-09-13T11:19:10;28.10;99.90
19555;DHT22;9924;50.828;6.440;2022-09-13T11:30:19;29.50;99.90
19555;DHT22;9924;50.828;6.440;2022-09-13T11:35:57;29.40;99.90
19555;DHT22;9924;50.828;6.440;2022-09-13T11:38:57;29.50;99.90
19555;DHT22;9924;50.828;6.440;2022-09-13T11:41:40;30.00;99.90
19555;DHT22;9924;50.828;6.440;2022-09-13T11:55:39;30.80;98.60
19555;DHT22;9924;50.828;6.440;2022-09-13T11:58:28;30.40;98.60
19555;DHT22;9924;50.828;6.440;2022-09-13T12:01:00;30.10;98.90
19555;DHT22;9924;50.828;6.440;2022-09-13T12:06:00;29.70;99.00
19555;DHT22;9924;50.828;6.440;2022-09-13T12:08:41;29.20;99.90
19555;DHT22;9924;50.828;6.440;2022-09-13T12:11:18;29.10;99.90
19555;DHT22;9924;50.828;6.440;2022-09-13T12:13:55;28.90;99.90
19555;DHT22;9924;50.828;6.440;2022-09-13T12:16:45;29.20;99.90
19555;DHT22;9924;50.828;6.440;2022-09-13T12:19:17;30.00;99.00
19555;DHT22;9924;50.828;6.440;2022-09-13T12:21:46;30.40;98.70
19555;DHT22;9924;50.828;6.440;2022-09-13T12:24:52;30.40;98.50
19555;DHT22;9924;50.828;6.440;2022-09-13T12:30:13;30.30;98.30
19555;DHT22;9924;50.828;6.440;2022-09-13T12:32:39;30.60;98.50
19555;DHT22;9924;50.828;6.440;2022-09-13T12:35:33;30.60;98.30
19555;DHT22;9924;50.828;6.440;2022-09-13T12:38:12;30.60;98.00
19555;DHT22;9924;50.828;6.440;2022-09-13T12:43:40;31.10;97.00
19555;DHT22;9924;50.828;6.440;2022-09-13T12:46:31;31.30;96.90
19555;DHT22;9924;50.828;6.440;2022-09-13T13:10:40;30.10;98.30
19555;DHT22;9924;50.828;6.440;2022-09-13T13:18:26;30.00;97.40
19555;DHT22;9924;50.828;6.440;2022-09-13T13:34:02;30.70;97.00
19555;DHT22;9924;50.828;6.440;2022-09-13T13:36:47;30.40;97.40
19555;DHT22;9924;50.828;6.440;2022-09-13T13:46:52;29.60;97.80
19555;DHT22;9924;50.828;6.440;2022-09-13T13:57:32;28.80;97.50
19555;DHT22;9924;50.828;6.440;2022-09-13T14:00:16;29.00;98.20
19555;DHT22;9924;50.828;6.440;2022-09-13T14:13:48;30.00;97.20
19555;DHT22;9924;50.828;6.440;2022-09-13T14:16:43;29.40;97.50
19555;DHT22;9924;50.828;6.440;2022-09-13T14:22:14;28.60;97.00
19555;DHT22;9924;50.828;6.440;2022-09-13T14:24:45;28.30;98.10
19555;DHT22;9924;50.828;6.440;2022-09-13T14:27:31;28.00;99.40
19555;DHT22;9924;50.828;6.440;2022-09-13T14:30:03;28.00;99.90
19555;DHT22;9924;50.828;6.440;2022-09-13T14:32:45;28.20;99.90
19555;DHT22;9924;50.828;6.440;2022-09-13T14:35:31;28.40;99.00
19555;DHT22;9924;50.828;6.440;2022-09-13T14:38:24;28.40;99.60
19555;DHT22;9924;50.828;6.440;2022-09-13T14:40:52;28.30;99.80
19555;DHT22;9924;50.828;6.440;2022-09-13T14:43:22;28.00;99.60
19555;DHT22;9924;50.828;6.440;2022-09-13T14:45:52;27.80;99.50
19555;DHT22;9924;50.828;6.440;2022-09-13T14:48:29;27.60;99.40
19555;DHT22;9924;50.828;6.440;2022-09-13T14:51:01;27.40;99.90
19555;DHT22;9924;50.828;6.440;2022-09-13T14:53:30;27.30;99.90
19555;DHT22;9924;50.828;6.440;2022-09-13T14:58:47;27.00;99.90
19555;DHT22;9924;50.828;6.440;2022-09-13T15:01:16;26.70;99.90
19555;DHT22;9924;50.828;6.440;2022-09-13T15:03:44;26.50;99.90
19555;DHT22;9924;50.828;6.440;2022-09-13T15:06:26;26.40;99.90
19555;DHT22;9924;50.828;6.440;2022-09-13T15:08:54;26.30;99.90
19555;DHT22;9924;50.828;6.440;2022-09-13T15:11:35;26.20;99.90
19555;DHT22;9924;50.828;6.440;2022-09-13T15:14:23;26.20;99.90
19555;DHT22;9924;50.828;6.440;2022-09-13T15:17:18;26.10;99.90
19555;DHT22;9924;50.828;6.440;2022-09-13T15:19:48;26.00;99.90
19555;DHT22;9924;50.828;6.440;2022-09-13T15:22:24;25.90;99.90
19555;DHT22;9924;50.828;6.440;2022-09-13T15:24:56;25.80;99.90
19555;DHT22;9924;50.828;6.440;2022-09-13T15:27:27;25.60;99.90
19555;DHT22;9924;50.828;6.440;2022-09-13T15:30:03;25.50;99.90
19555;DHT22;9924;50.828;6.440;2022-09-13T15:32:42;25.40;99.90
19555;DHT22;9924;50.828;6.440;2022-09-13T15:35:23;25.20;99.90
19555;DHT22;9924;50.828;6.440;2022-09-13T15:38:17;25.10;99.90
19555;DHT22;9924;50.828;6.440;2022-09-13T15:41:31;25.00;99.90
19555;DHT22;9924;50.828;6.440;2022-09-13T15:43:31;24.90;99.90
19555;DHT22;9924;50.828;6.440;2022-09-13T15:45:57;24.80;99.90
19555;DHT22;9924;50.828;6.440;2022-09-13T15:48:31;24.70;99.90
19555;DHT22;9924;50.828;6.440;2022-09-13T15:51:05;24.70;99.90
19555;DHT22;9924;50.828;6.440;2022-09-13T15:53:32;24.60;99.90
19555;DHT22;9924;50.828;6.440;2022-09-13T15:56:00;24.60;99.90
19555;DHT22;9924;50.828;6.440;2022-09-13T15:58:26;24.40;99.90
19555;DHT22;9924;50.828;6.440;2022-09-13T16:00:51;24.20;99.90
19555;DHT22;9924;50.828;6.440;2022-09-13T16:03:17;24.10;99.90
19555;DHT22;9924;50.828;6.440;2022-09-13T16:05:43;23.90;99.90
19555;DHT22;9924;50.828;6.440;2022-09-13T16:08:10;23.80;99.90
19555;DHT22;9924;50.828;6.440;2022-09-13T16:10:36;23.60;99.90
19555;DHT22;9924;50.828;6.440;2022-09-13T16:13:02;23.50;99.90
19555;DHT22;9924;50.828;6.440;2022-09-13T16:15:28;23.40;99.90
19555;DHT22;9924;50.828;6.440;2022-09-13T16:17:54;23.20;99.90
19555;DHT22;9924;50.828;6.440;2022-09-13T16:20:19;23.10;99.90
19555;DHT22;9924;50.828;6.440;2022-09-13T16:22:46;22.90;99.90
19555;DHT22;9924;50.828;6.440;2022-09-13T16:25:12;22.70;99.90
19555;DHT22;9924;50.828;6.440;2022-09-13T16:27:41;22.60;99.90
19555;DHT22;9924;50.828;6.440;2022-09-13T16:30:14;22.40;99.90
19555;DHT22;9924;50.828;6.440;2022-09-13T16:32:40;22.30;99.90
19555;DHT22;9924;50.828;6.440;2022-09-13T16:35:07;22.10;99.90
19555;DHT22;9924;50.828;6.440;2022-09-13T16:37:33;21.90;99.90
19555;DHT22;9924;50.828;6.440;2022-09-13T16:40:00;21.70;99.90
19555;DHT22;9924;50.828;6.440;2022-09-13T16:42:26;21.60;99.90
19555;DHT22;9924;50.828;6.440;2022-09-13T16:44:52;21.40;99.90
19555;DHT22;9924;50.828;6.440;2022-09-13T16:47:18;21.30;99.90
19555;DHT22;9924;50.828;6.440;2022-09-13T16:49:43;21.20;99.90
19555;DHT22;9924;50.828;6.440;2022-09-13T16:52:09;21.10;99.90
19555;DHT22;9924;50.828;6.440;2022-09-13T16:54:35;21.00;99.90
19555;DHT22;9924;50.828;6.440;2022-09-13T16:57:03;21.00;99.90
19555;DHT22;9924;50.828;6.440;2022-09-13T16:59:29;21.00;99.90
19555;DHT22;9924;50.828;6.440;2022-09-13T17:01:55;20.90;99.90
19555;DHT22;9924;50.828;6.440;2022-09-13T17:04:22;20.90;99.90
19555;DHT22;9924;50.828;6.440;2022-09-13T17:06:48;20.90;99.90
19555;DHT22;9924;50.828;6.440;2022-09-13T17:09:14;20.90;99.90
19555;DHT22;9924;50.828;6.440;2022-09-13T17:11:42;20.90;99.90
19555;DHT22;9924;50.828;6.440;2022-09-13T17:14:10;20.90;99.90
19555;DHT22;9924;50.828;6.440;2022-09-13T17:16:40;20.90;99.90
19555;DHT22;9924;50.828;6.440;2022-09-13T17:19:12;20.90;99.90
19555;DHT22;9924;50.828;6.440;2022-09-13T17:21:39;20.90;99.90
19555;DHT22;9924;50.828;6.440;2022-09-13T17:24:05;20.90;99.90
19555;DHT22;9924;50.828;6.440;2022-09-13T17:26:31;20.90;99.90
19555;DHT22;9924;50.828;6.440;2022-09-13T17:28:57;20.90;99.90
19555;DHT22;9924;50.828;6.440;2022-09-13T17:31:23;20.90;99.90
19555;DHT22;9924;50.828;6.440;2022-09-13T17:33:49;20.90;99.90
19555;DHT22;9924;50.828;6.440;2022-09-13T17:36:18;20.90;99.90
19555;DHT22;9924;50.828;6.440;2022-09-13T17:38:44;20.80;99.90
19555;DHT22;9924;50.828;6.440;2022-09-13T17:41:16;20.70;99.90
19555;DHT22;9924;50.828;6.440;2022-09-13T17:43:43;20.70;99.90
19555;DHT22;9924;50.828;6.440;2022-09-13T17:46:14;20.70;99.90
19555;DHT22;9924;50.828;6.440;2022-09-13T17:48:41;20.60;99.90
19555;DHT22;9924;50.828;6.440;2022-09-13T17:51:14;20.70;99.90
19555;DHT22;9924;50.828;6.440;2022-09-13T17:53:48;20.70;99.90
19555;DHT22;9924;50.828;6.440;2022-09-13T17:56:23;20.70;99.90
19555;DHT22;9924;50.828;6.440;2022-09-13T17:58:56;20.70;99.90
19555;DHT22;9924;50.828;6.440;2022-09-13T18:01:22;20.70;99.90
19555;DHT22;9924;50.828;6.440;2022-09-13T18:03:48;20.60;99.90
19555;DHT22;9924;50.828;6.440;2022-09-13T18:06:14;20.60;99.90
19555;DHT22;9924;50.828;6.440;2022-09-13T18:08:40;20.50;99.90
19555;DHT22;9924;50.828;6.440;2022-09-13T18:11:09;20.40;99.90
19555;DHT22;9924;50.828;6.440;2022-09-13T18:13:35;20.30;99.90
19555;DHT22;9924;50.828;6.440;2022-09-13T18:16:04;20.30;99.90
19555;DHT22;9924;50.828;6.440;2022-09-13T18:18:34;20.30;99.90
19555;DHT22;9924;50.828;6.440;2022-09-13T18:20:59;20.20;99.90
19555;DHT22;9924;50.828;6.440;2022-09-13T18:23:26;20.20;99.90
19555;DHT22;9924;50.828;6.440;2022-09-13T18:26:05;20.10;99.90
19555;DHT22;9924;50.828;6.440;2022-09-13T18:28:31;20.10;99.90
19555;DHT22;9924;50.828;6.440;2022-09-13T18:31:01;20.10;99.90
19555;DHT22;9924;50.828;6.440;2022-09-13T18:33:28;20.10;99.90
19555;DHT22;9924;50.828;6.440;2022-09-13T18:38:21;20.10;99.90
19555;DHT22;9924;50.828;6.440;2022-09-13T18:41:06;20.10;99.90
19555;DHT22;9924;50.828;6.440;2022-09-13T18:43:34;20.10;99.90
19555;DHT22;9924;50.828;6.440;2022-09-13T18:46:02;20.10;99.90
19555;DHT22;9924;50.828;6.440;2022-09-13T18:48:34;20.00;99.90
19555;DHT22;9924;50.828;6.440;2022-09-13T18:51:01;20.00;99.90
19555;DHT22;9924;50.828;6.440;2022-09-13T18:53:28;20.00;99.90
19555;DHT22;9924;50.828;6.440;2022-09-13T18:55:54;20.00;99.90
19555;DHT22;9924;50.828;6.440;2022-09-13T18:58:23;20.00;99.90
19555;DHT22;9924;50.828;6.440;2022-09-13T19:01:01;19.90;99.90
19555;DHT22;9924;50.828;6.440;2022-09-13T19:03:27;19.90;99.90
19555;DHT22;9924;50.828;6.440;2022-09-13T19:05:53;20.00;99.90
19555;DHT22;9924;50.828;6.440;2022-09-13T19:08:19;20.00;99.90
19555;DHT22;9924;50.828;6.440;2022-09-13T19:10:45;19.90;99.90
19555;DHT22;9924;50.828;6.440;2022-09-13T19:13:10;19.90;99.90
19555;DHT22;9924;50.828;6.440;2022-09-13T19:15:36;19.90;99.90
19555;DHT22;9924;50.828;6.440;2022-09-13T19:18:02;19.90;99.90
19555;DHT22;9924;50.828;6.440;2022-09-13T19:20:28;19.90;99.90
19555;DHT22;9924;50.828;6.440;2022-09-13T19:22:54;19.90;99.90
19555;DHT22;9924;50.828;6.440;2022-09-13T19:25:20;19.90;99.90
19555;DHT22;9924;50.828;6.440;2022-09-13T19:27:47;19.90;99.90
19555;DHT22;9924;50.828;6.440;2022-09-13T19:30:13;19.90;99.90
19555;DHT22;9924;50.828;6.440;2022-09-13T19:32:39;19.90;99.90
19555;DHT22;9924;50.828;6.440;2022-09-13T19:35:05;19.70;99.90
19555;DHT22;9924;50.828;6.440;2022-09-13T19:37:31;19.60;99.90
19555;DHT22;9924;50.828;6.440;2022-09-13T19:39:57;19.60;99.90
19555;DHT22;9924;50.828;6.440;2022-09-13T19:42:23;19.60;99.90
19555;DHT22;9924;50.828;6.440;2022-09-13T19:44:49;19.70;99.90
19555;DHT22;9924;50.828;6.440;2022-09-13T19:47:14;19.70;99.90
19555;DHT22;9924;50.828;6.440;2022-09-13T19:49:40;19.60;99.90
19555;DHT22;9924;50.828;6.440;2022-09-13T19:52:06;19.60;99.90
19555;DHT22;9924;50.828;6.440;2022-09-13T19:54:32;19.50;99.90
19555;DHT22;9924;50.828;6.440;2022-09-13T19:56:58;19.50;99.90
19555;DHT22;9924;50.828;6.440;2022-09-13T19:59:24;19.40;99.90
19555;DHT22;9924;50.828;6.440;2022-09-13T20:01:51;19.40;99.90
19555;DHT22;9924;50.828;6.440;2022-09-13T20:04:19;19.40;99.90
19555;DHT22;9924;50.828;6.440;2022-09-13T20:06:48;19.40;99.90
19555;DHT22;9924;50.828;6.440;2022-09-13T20:09:15;19.30;99.90
19555;DHT22;9924;50.828;6.440;2022-09-13T20:11:42;19.30;99.90
19555;DHT22;9924;50.828;6.440;2022-09-13T20:14:14;19.30;99.90